Time;durP1;ratioP1;P1;durP2;ratioP2;P2;SDS_P1;SDS_P2;PMS_P1;PMS_P2;Temp;Humidity;BMP_temperature;BMP_pressure;BME280_temperature;BME280_humidity;BME280_pressure;Samples;Min_cycle;Max_cycle;Signal;HPM_P1;HPM_P2
2021/08/22 00:17:40;;;;;;;12.43;6.68;;;;;;;;;;4617384;28;20102;-68
2021/08/22 00:20:07;;;;;;;12.68;6.37;;;;;;;;;;4219331;34;20113;-68
2021/08/22 00:22:33;;;;;;;11.07;6.82;;;;;;;;;;4212801;34;20105;-68
2021/08/22 00:24:59;;;;;;;17.23;7.57;;;;;;;;;;4205486;34;20137;-70
2021/08/22 00:27:25;;;;;;;15.07;6.97;;;;;;;;;;4205302;34;20114;-69
2021/08/22 00:29:50;;;;;;;18.83;8.25;;;;;;;;;;4205434;34;20146;-69
2021/08/22 00:32:16;;;;;;;13.85;7.05;;;;;;;;;;4192311;34;20129;-69
2021/08/22 00:34:42;;;;;;;14.60;6.68;;;;;;;;;;4205253;34;20243;-69
2021/08/22 00:37:08;;;;;;;16.45;7.72;;;;;;;;;;4205266;34;20136;-70
2021/08/22 00:39:34;;;;;;;13.50;6.53;;;;;;;;;;4205356;34;20136;-69
2021/08/22 00:42:00;;;;;;;20.75;6.68;;;;;;;;;;4205316;34;20530;-68
2021/08/22 00:44:26;;;;;;;14.35;6.85;;;;;;;;;;4192457;34;20132;-68
2021/08/22 00:46:53;;;;;;;14.05;6.85;;;;;;;;;;4205114;34;20520;-68
2021/08/22 00:49:25;;;;;;;19.00;6.70;;;;;;;;;;4205214;34;20109;-69
2021/08/22 00:51:51;;;;;;;12.57;6.93;;;;;;;;;;4192241;34;20526;-68
2021/08/22 00:54:17;;;;;;;16.45;7.30;;;;;;;;;;4205205;34;20140;-69
2021/08/22 00:56:43;;;;;;;17.62;7.35;;;;;;;;;;4205451;34;20586;-69
2021/08/22 00:59:10;;;;;;;13.57;7.22;;;;;;;;;;4181409;34;20521;-69
2021/08/22 01:01:36;;;;;;;14.10;6.45;;;;;;;;;;4181014;34;20125;-69
2021/08/22 01:04:06;;;;;;;11.77;5.72;;;;;;;;;;4181079;34;20124;-69
2021/08/22 01:06:47;;;;;;;13.80;6.30;;;;;;;;;;4205229;34;20197;-68
2021/08/22 01:09:25;;;;;;;11.68;6.28;;;;;;;;;;4205462;34;20140;-68
2021/08/22 01:11:51;;;;;;;16.23;6.72;;;;;;;;;;4204963;34;20125;-68
2021/08/22 01:14:22;;;;;;;12.93;6.70;;;;;;;;;;4180915;34;20113;-69
2021/08/22 01:16:53;;;;;;;10.57;5.95;;;;;;;;;;4180809;34;20101;-69
2021/08/22 01:19:22;;;;;;;15.70;6.43;;;;;;;;;;4178616;34;20121;-69
2021/08/22 01:21:47;;;;;;;12.85;6.25;;;;;;;;;;4191312;34;20276;-69
2021/08/22 01:24:13;;;;;;;18.00;6.65;;;;;;;;;;4178416;34;20149;-69
2021/08/22 01:26:39;;;;;;;13.27;6.68;;;;;;;;;;4178219;34;20150;-69
2021/08/22 01:29:05;;;;;;;13.43;5.65;;;;;;;;;;4191063;34;20129;-69
2021/08/22 01:31:41;;;;;;;11.25;6.72;;;;;;;;;;4178133;34;20241;-69
2021/08/22 01:34:06;;;;;;;14.85;7.07;;;;;;;;;;4189813;34;20117;-69
2021/08/22 01:36:34;;;;;;;11.10;5.97;;;;;;;;;;4178207;34;20133;-69
2021/08/22 01:38:59;;;;;;;13.75;6.62;;;;;;;;;;4178190;34;20096;-69
2021/08/22 01:41:25;;;;;;;13.15;6.25;;;;;;;;;;4178102;34;20175;-69
2021/08/22 01:43:52;;;;;;;12.68;6.05;;;;;;;;;;4178079;34;20125;-69
2021/08/22 01:46:27;;;;;;;10.80;5.62;;;;;;;;;;4177968;34;20177;-69
2021/08/22 01:48:53;;;;;;;14.50;6.47;;;;;;;;;;4178732;34;20230;-69
2021/08/22 01:51:19;;;;;;;12.90;6.45;;;;;;;;;;4179736;34;20541;-69
2021/08/22 01:53:45;;;;;;;11.27;5.90;;;;;;;;;;4180292;34;20663;-69
2021/08/22 01:56:10;;;;;;;16.98;7.57;;;;;;;;;;4180408;34;20109;-69
2021/08/22 01:58:36;;;;;;;17.58;6.50;;;;;;;;;;4204337;34;20117;-70
2021/08/22 02:01:02;;;;;;;13.88;6.18;;;;;;;;;;4191775;34;20197;-69
2021/08/22 02:03:36;;;;;;;13.18;5.93;;;;;;;;;;4180506;34;20641;-68
2021/08/22 02:06:23;;;;;;;15.63;6.37;;;;;;;;;;4191878;34;20213;-69
2021/08/22 02:08:52;;;;;;;11.43;6.40;;;;;;;;;;4191471;34;20105;-69
2021/08/22 02:11:20;;;;;;;12.77;6.28;;;;;;;;;;4191794;34;20518;-69
2021/08/22 02:13:46;;;;;;;12.30;6.25;;;;;;;;;;4180342;34;20093;-69
2021/08/22 02:16:13;;;;;;;15.52;6.07;;;;;;;;;;4180163;34;20102;-69
2021/08/22 02:18:39;;;;;;;11.55;5.95;;;;;;;;;;4180096;34;20518;-68
2021/08/22 02:21:05;;;;;;;14.68;5.78;;;;;;;;;;4180260;34;20205;-69
2021/08/22 02:23:31;;;;;;;13.65;5.90;;;;;;;;;;4191603;34;20465;-69
2021/08/22 02:25:57;;;;;;;9.75;5.55;;;;;;;;;;4180347;34;20122;-68
2021/08/22 02:28:23;;;;;;;10.68;6.05;;;;;;;;;;4180132;34;20552;-69
2021/08/22 02:30:50;;;;;;;12.23;6.40;;;;;;;;;;4191414;34;20133;-69
2021/08/22 02:33:16;;;;;;;13.43;6.68;;;;;;;;;;4204188;34;20214;-69
2021/08/22 02:35:42;;;;;;;14.23;6.50;;;;;;;;;;4191393;34;20546;-69
2021/08/22 02:38:08;;;;;;;14.00;6.35;;;;;;;;;;4191403;34;20629;-69
2021/08/22 02:40:34;;;;;;;10.20;5.62;;;;;;;;;;4191593;34;20213;-69
2021/08/22 02:43:00;;;;;;;13.75;6.60;;;;;;;;;;4204112;34;20137;-69
2021/08/22 02:45:26;;;;;;;11.85;5.90;;;;;;;;;;4191311;34;20169;-69
2021/08/22 02:47:56;;;;;;;16.55;5.97;;;;;;;;;;4191406;34;20602;-69
2021/08/22 02:50:24;;;;;;;16.67;6.20;;;;;;;;;;4204026;34;20529;-69
2021/08/22 02:52:49;;;;;;;18.77;6.00;;;;;;;;;;4203852;34;20101;-69
2021/08/22 02:55:15;;;;;;;19.00;6.22;;;;;;;;;;4191198;34;20481;-69
2021/08/22 02:57:43;;;;;;;14.30;7.05;;;;;;;;;;4205170;34;20216;-69
2021/08/22 03:00:09;;;;;;;9.50;5.45;;;;;;;;;;4206334;34;20201;-69
2021/08/22 03:02:35;;;;;;;17.05;7.12;;;;;;;;;;4205977;34;20124;-69
2021/08/22 03:05:01;;;;;;;22.95;7.72;;;;;;;;;;4206361;34;20454;-69
2021/08/22 03:07:27;;;;;;;13.23;6.25;;;;;;;;;;4205859;34;20090;-69
2021/08/22 03:09:53;;;;;;;11.77;6.03;;;;;;;;;;4206100;34;20102;-69
2021/08/22 03:12:18;;;;;;;13.60;6.07;;;;;;;;;;4206128;34;20109;-69
2021/08/22 03:14:44;;;;;;;12.88;6.07;;;;;;;;;;4206318;34;20204;-69
2021/08/22 03:17:10;;;;;;;19.85;7.12;;;;;;;;;;4181515;34;20723;-69
2021/08/22 03:19:36;;;;;;;12.73;5.93;;;;;;;;;;4193100;34;20156;-69
2021/08/22 03:22:02;;;;;;;20.23;7.07;;;;;;;;;;4205918;34;20521;-69
2021/08/22 03:24:28;;;;;;;13.27;6.80;;;;;;;;;;4206195;34;20101;-69
2021/08/22 03:26:54;;;;;;;16.30;8.57;;;;;;;;;;4206032;34;20125;-69
2021/08/22 03:29:20;;;;;;;23.90;10.32;;;;;;;;;;4193300;34;20135;-69
2021/08/22 03:31:45;;;;;;;16.35;8.23;;;;;;;;;;4204491;34;20132;-69
2021/08/22 03:34:11;;;;;;;14.23;6.95;;;;;;;;;;4193340;34;20130;-69
2021/08/22 03:36:37;;;;;;;22.65;6.68;;;;;;;;;;4206157;34;20556;-69
2021/08/22 03:39:04;;;;;;;17.60;6.78;;;;;;;;;;4206286;34;20232;-69
2021/08/22 03:41:32;;;;;;;14.80;5.78;;;;;;;;;;4193210;34;20120;-69
2021/08/22 03:43:59;;;;;;;13.77;6.18;;;;;;;;;;4207063;34;20219;-69
2021/08/22 03:46:25;;;;;;;12.80;6.00;;;;;;;;;;4207994;34;20113;-69
2021/08/22 03:48:51;;;;;;;13.05;6.50;;;;;;;;;;4207003;34;20538;-69
2021/08/22 03:51:17;;;;;;;12.32;6.65;;;;;;;;;;4207441;34;20462;-69
2021/08/22 03:53:43;;;;;;;13.77;6.10;;;;;;;;;;4193724;34;20133;-69
2021/08/22 03:56:08;;;;;;;10.55;6.32;;;;;;;;;;4206059;34;20125;-69
2021/08/22 03:58:34;;;;;;;12.85;6.32;;;;;;;;;;4205846;34;20205;-69
2021/08/22 04:01:03;;;;;;;13.80;7.35;;;;;;;;;;4205729;34;20645;-69
2021/08/22 04:03:29;;;;;;;11.50;6.25;;;;;;;;;;4193201;34;20230;-70
2021/08/22 04:05:55;;;;;;;13.15;5.68;;;;;;;;;;4192812;34;20124;-69
2021/08/22 04:08:24;;;;;;;19.73;6.57;;;;;;;;;;4181012;34;20137;-69
2021/08/22 04:10:51;;;;;;;10.45;5.80;;;;;;;;;;4205624;34;20093;-69
2021/08/22 04:13:17;;;;;;;13.65;6.45;;;;;;;;;;4205795;34;20178;-69
2021/08/22 04:15:43;;;;;;;10.60;5.62;;;;;;;;;;4205732;34;20140;-69
2021/08/22 04:18:09;;;;;;;12.37;7.15;;;;;;;;;;4192744;34;20518;-70
2021/08/22 04:20:35;;;;;;;20.02;7.97;;;;;;;;;;4205828;34;20129;-70
2021/08/22 04:23:01;;;;;;;15.50;6.45;;;;;;;;;;4205709;34;20121;-70
2021/08/22 04:25:27;;;;;;;12.35;6.53;;;;;;;;;;4205990;34;20637;-70
2021/08/22 04:27:53;;;;;;;14.48;5.60;;;;;;;;;;4192394;34;20126;-70
2021/08/22 04:30:18;;;;;;;9.88;5.22;;;;;;;;;;4192565;34;20140;-71
2021/08/22 04:32:44;;;;;;;16.25;6.72;;;;;;;;;;4192447;34;20110;-71
2021/08/22 04:35:10;;;;;;;12.05;5.20;;;;;;;;;;4205708;34;20141;-70
2021/08/22 04:37:36;;;;;;;8.50;5.37;;;;;;;;;;4205315;34;20105;-70
2021/08/22 04:40:05;;;;;;;14.52;5.87;;;;;;;;;;4205384;34;20446;-70
2021/08/22 04:42:31;;;;;;;13.82;6.28;;;;;;;;;;4205392;34;20192;-70
2021/08/22 04:44:58;;;;;;;15.32;5.60;;;;;;;;;;4205563;34;20152;-70
2021/08/22 04:47:24;;;;;;;17.60;5.93;;;;;;;;;;4205180;34;20125;-70
2021/08/22 04:49:50;;;;;;;11.80;4.85;;;;;;;;;;4205311;34;20548;-70
2021/08/22 04:52:16;;;;;;;16.62;6.70;;;;;;;;;;4180754;34;20168;-70
2021/08/22 04:54:42;;;;;;;11.15;5.70;;;;;;;;;;4205384;34;20145;-70
2021/08/22 04:57:08;;;;;;;13.77;5.80;;;;;;;;;;4192265;34;20106;-70
2021/08/22 04:59:34;;;;;;;12.70;5.85;;;;;;;;;;4205137;34;20125;-70
2021/08/22 05:01:59;;;;;;;13.80;5.78;;;;;;;;;;4192161;34;20106;-70
2021/08/22 05:04:25;;;;;;;9.57;5.55;;;;;;;;;;4205151;34;20157;-70
2021/08/22 05:06:51;;;;;;;13.30;5.72;;;;;;;;;;4204958;34;20200;-70
2021/08/22 05:09:17;;;;;;;13.57;6.20;;;;;;;;;;4205111;34;20477;-70
2021/08/22 05:11:43;;;;;;;8.15;4.72;;;;;;;;;;4204898;34;20557;-70
2021/08/22 05:14:09;;;;;;;14.40;5.40;;;;;;;;;;4192113;34;20122;-70
2021/08/22 05:16:35;;;;;;;10.38;5.18;;;;;;;;;;4204714;34;20566;-70
2021/08/22 05:19:01;;;;;;;6.07;4.30;;;;;;;;;;4204309;34;20109;-70
2021/08/22 05:21:27;;;;;;;19.10;6.03;;;;;;;;;;4180255;34;20126;-70
2021/08/22 05:23:53;;;;;;;21.33;7.07;;;;;;;;;;4204915;34;20132;-70
2021/08/22 05:26:19;;;;;;;15.27;5.97;;;;;;;;;;4205070;34;20119;-70
2021/08/22 05:28:45;;;;;;;16.65;5.82;;;;;;;;;;4191908;34;20446;-70
2021/08/22 05:31:11;;;;;;;12.48;6.20;;;;;;;;;;4180690;34;20157;-70
2021/08/22 05:33:37;;;;;;;15.60;7.25;;;;;;;;;;4204673;34;20104;-70
2021/08/22 05:36:36;;;;;;;14.00;6.97;;;;;;;;;;4204871;34;20121;-70
2021/08/22 05:39:02;;;;;;;12.60;6.15;;;;;;;;;;4196397;34;20098;-70
2021/08/22 05:41:28;;;;;;;10.65;4.72;;;;;;;;;;4192045;34;20198;-70
2021/08/22 05:43:54;;;;;;;12.35;6.57;;;;;;;;;;4204667;34;20221;-70
2021/08/22 05:46:19;;;;;;;9.57;4.90;;;;;;;;;;4191823;34;20129;-70
2021/08/22 05:48:45;;;;;;;12.37;5.15;;;;;;;;;;4204545;34;20133;-70
2021/08/22 05:51:15;;;;;;;15.95;6.90;;;;;;;;;;4204650;34;20488;-70
2021/08/22 05:53:44;;;;;;;18.87;6.40;;;;;;;;;;4180302;34;20125;-70
2021/08/22 05:56:10;;;;;;;10.85;5.93;;;;;;;;;;4204634;34;20109;-70
2021/08/22 05:58:36;;;;;;;19.00;7.07;;;;;;;;;;4204359;34;20183;-70
2021/08/22 06:01:03;;;;;;;15.25;6.37;;;;;;;;;;4204609;34;20443;-70
2021/08/22 06:03:29;;;;;;;18.83;7.32;;;;;;;;;;4180284;34;20138;-70
2021/08/22 06:05:55;;;;;;;19.83;7.20;;;;;;;;;;4204572;34;20143;-70
2021/08/22 06:08:20;;;;;;;16.85;6.95;;;;;;;;;;4204409;34;20537;-70
2021/08/22 06:10:46;;;;;;;16.30;7.65;;;;;;;;;;4204496;34;20126;-70
2021/08/22 06:13:12;;;;;;;29.40;7.82;;;;;;;;;;4204261;34;20213;-70
2021/08/22 06:15:38;;;;;;;14.87;6.65;;;;;;;;;;4191527;34;20193;-70
2021/08/22 06:18:04;;;;;;;17.25;6.00;;;;;;;;;;4179903;34;20117;-70
2021/08/22 06:20:30;;;;;;;18.50;6.43;;;;;;;;;;4191713;34;20278;-70
2021/08/22 06:22:56;;;;;;;10.60;6.07;;;;;;;;;;4191363;34;20106;-70
2021/08/22 06:25:22;;;;;;;13.05;6.50;;;;;;;;;;4204298;34;20141;-70
2021/08/22 06:27:48;;;;;;;18.00;7.47;;;;;;;;;;4204291;34;20136;-69
2021/08/22 06:30:14;;;;;;;15.23;7.05;;;;;;;;;;4204207;34;20149;-69
2021/08/22 06:32:40;;;;;;;21.05;6.80;;;;;;;;;;4206395;34;20134;-69
2021/08/22 06:35:06;;;;;;;15.10;6.78;;;;;;;;;;4206366;34;20164;-69
2021/08/22 06:37:32;;;;;;;20.33;6.97;;;;;;;;;;4206544;34;20125;-69
2021/08/22 06:39:59;;;;;;;19.20;7.05;;;;;;;;;;4206573;34;20222;-69
2021/08/22 06:42:25;;;;;;;14.52;5.72;;;;;;;;;;4206297;34;20205;-69
2021/08/22 06:44:52;;;;;;;11.32;6.32;;;;;;;;;;4206543;34;20118;-69
2021/08/22 06:47:17;;;;;;;14.75;6.32;;;;;;;;;;4193476;34;20116;-68
2021/08/22 06:49:44;;;;;;;13.30;7.25;;;;;;;;;;4206345;34;20130;-68
2021/08/22 06:52:12;;;;;;;10.82;5.40;;;;;;;;;;4206191;34;20117;-68
2021/08/22 06:54:41;;;;;;;9.57;5.18;;;;;;;;;;4206449;34;20205;-66
2021/08/22 06:57:08;;;;;;;15.88;6.40;;;;;;;;;;4206221;34;20129;-66
2021/08/22 06:59:34;;;;;;;14.93;6.50;;;;;;;;;;4206332;34;20531;-65
2021/08/22 07:02:00;;;;;;;15.85;6.60;;;;;;;;;;4206125;34;20126;-65
2021/08/22 07:04:26;;;;;;;13.98;6.40;;;;;;;;;;4193779;34;20468;-65
2021/08/22 07:06:52;;;;;;;16.67;6.10;;;;;;;;;;4206252;34;20129;-68
2021/08/22 07:09:18;;;;;;;13.43;6.28;;;;;;;;;;4193285;34;20298;-68
2021/08/22 07:11:44;;;;;;;9.40;5.50;;;;;;;;;;4206027;34;20621;-66
2021/08/22 07:14:10;;;;;;;11.52;5.93;;;;;;;;;;4206030;34;20161;-68
2021/08/22 07:16:37;;;;;;;16.90;5.78;;;;;;;;;;4193330;34;20201;-66
2021/08/22 07:19:04;;;;;;;15.82;6.22;;;;;;;;;;4206057;34;20130;-69
2021/08/22 07:21:30;;;;;;;18.15;6.95;;;;;;;;;;4206294;34;20136;-66
2021/08/22 07:23:56;;;;;;;16.48;7.28;;;;;;;;;;4206039;34;20105;-66
2021/08/22 07:26:22;;;;;;;8.50;5.32;;;;;;;;;;4193099;34;20127;-69
2021/08/22 07:28:48;;;;;;;16.65;5.62;;;;;;;;;;4206249;34;20141;-67
2021/08/22 07:31:15;;;;;;;12.07;5.45;;;;;;;;;;4206295;34;20129;-66
2021/08/22 07:33:41;;;;;;;9.80;4.93;;;;;;;;;;4206339;34;20497;-69
2021/08/22 07:36:08;;;;;;;11.82;4.93;;;;;;;;;;4205967;34;20172;-69
2021/08/22 07:38:33;;;;;;;18.45;5.07;;;;;;;;;;4193055;34;20173;-69
2021/08/22 07:40:59;;;;;;;8.07;4.97;;;;;;;;;;4205838;34;20215;-69
2021/08/22 07:43:25;;;;;;;12.93;5.10;;;;;;;;;;4205185;34;20197;-68
2021/08/22 07:45:51;;;;;;;12.75;5.07;;;;;;;;;;4206398;34;20162;-66
2021/08/22 07:48:17;;;;;;;10.85;4.90;;;;;;;;;;4205726;34;20179;-68
2021/08/22 07:50:43;;;;;;;7.45;4.32;;;;;;;;;;4193108;34;20565;-66
2021/08/22 07:53:09;;;;;;;5.30;3.25;;;;;;;;;;4193039;34;20562;-69
2021/08/22 07:55:35;;;;;;;15.43;5.82;;;;;;;;;;4206001;34;20140;-66
2021/08/22 07:58:01;;;;;;;13.25;5.75;;;;;;;;;;4205847;34;20442;-68
2021/08/22 08:00:27;;;;;;;5.95;3.53;;;;;;;;;;4205677;34;20129;-68
2021/08/22 08:02:53;;;;;;;8.27;4.50;;;;;;;;;;4192910;34;20118;-68
2021/08/22 08:05:19;;;;;;;12.70;6.12;;;;;;;;;;4209350;34;20145;-67
2021/08/22 08:07:45;;;;;;;16.37;5.25;;;;;;;;;;4206814;34;20588;-69
2021/08/22 08:10:11;;;;;;;17.42;5.85;;;;;;;;;;4205916;34;20145;-66
2021/08/22 08:12:37;;;;;;;19.25;5.22;;;;;;;;;;4206202;34;20532;-70
2021/08/22 08:15:04;;;;;;;10.00;4.60;;;;;;;;;;4206140;34;20232;-69
2021/08/22 08:17:29;;;;;;;6.10;4.12;;;;;;;;;;4205514;34;20114;-67
2021/08/22 08:19:55;;;;;;;5.28;3.00;;;;;;;;;;4205653;34;20201;-67
2021/08/22 08:22:23;;;;;;;9.30;4.22;;;;;;;;;;4206939;34;20114;-69
2021/08/22 08:24:49;;;;;;;12.02;4.95;;;;;;;;;;4193104;34;20229;-69
2021/08/22 08:27:15;;;;;;;12.23;5.35;;;;;;;;;;4205527;34;20114;-67
2021/08/22 08:29:41;;;;;;;11.55;5.00;;;;;;;;;;4192833;34;20128;-67
2021/08/22 08:32:07;;;;;;;15.63;5.28;;;;;;;;;;4205755;34;20229;-67
2021/08/22 08:34:33;;;;;;;9.80;5.43;;;;;;;;;;4192794;34;20081;-66
2021/08/22 08:37:05;;;;;;;12.25;5.00;;;;;;;;;;4192443;34;20673;-65
2021/08/22 08:39:42;;;;;;;9.68;5.30;;;;;;;;;;4193809;34;20686;-71
2021/08/22 08:42:34;;;;;;;11.80;4.60;;;;;;;;;;4181408;34;20449;-65
2021/08/22 08:45:00;;;;;;;11.52;4.82;;;;;;;;;;4205662;34;20125;-66
2021/08/22 08:47:26;;;;;;;6.28;2.85;;;;;;;;;;4205218;34;20407;-64
2021/08/22 08:49:58;;;;;;;6.15;3.85;;;;;;;;;;4205347;34;20121;-64
2021/08/22 08:52:32;;;;;;;11.93;4.12;;;;;;;;;;4205285;34;20117;-69
2021/08/22 08:55:17;;;;;;;7.70;4.57;;;;;;;;;;4205679;34;20097;-68
2021/08/22 08:57:42;;;;;;;18.67;4.37;;;;;;;;;;4205460;34;20117;-69
2021/08/22 09:00:19;;;;;;;5.28;3.62;;;;;;;;;;4205474;34;20228;-68
2021/08/22 09:02:45;;;;;;;8.73;4.72;;;;;;;;;;4205193;34;20114;-68
2021/08/22 09:05:14;;;;;;;15.23;5.28;;;;;;;;;;4205203;34;20543;-68
2021/08/22 09:07:52;;;;;;;12.43;5.30;;;;;;;;;;4204929;34;20523;-68
2021/08/22 09:10:43;;;;;;;14.63;5.00;;;;;;;;;;4205195;34;20228;-66
2021/08/22 09:13:43;;;;;;;8.18;4.75;;;;;;;;;;4205301;34;20589;-68
2021/08/22 09:16:24;;;;;;;17.27;4.82;;;;;;;;;;4205145;34;20104;-69
2021/08/22 09:19:23;;;;;;;9.07;4.43;;;;;;;;;;4205036;34;20522;-67
2021/08/22 09:22:27;;;;;;;10.80;5.85;;;;;;;;;;4175878;34;20093;-66
2021/08/22 09:25:28;;;;;;;8.23;4.78;;;;;;;;;;4205207;34;20122;-65
2021/08/22 09:29:12;;;;;;;11.88;5.00;;;;;;;;;;4191175;34;20206;-66
2021/08/22 09:32:03;;;;;;;15.73;5.32;;;;;;;;;;4191588;34;20559;-65
2021/08/22 09:35:05;;;;;;;8.63;4.22;;;;;;;;;;4204737;34;20508;-67
2021/08/22 09:38:09;;;;;;;12.57;4.97;;;;;;;;;;4190783;34;20168;-68
2021/08/22 09:41:06;;;;;;;7.50;3.87;;;;;;;;;;4204767;34;20106;-68
2021/08/22 09:43:50;;;;;;;15.70;4.80;;;;;;;;;;4205251;34;20129;-67
2021/08/22 09:46:48;;;;;;;7.82;3.85;;;;;;;;;;4204974;34;20422;-72
2021/08/22 09:49:24;;;;;;;11.85;4.57;;;;;;;;;;4205047;34;20215;-68
2021/08/22 09:52:25;;;;;;;8.05;3.97;;;;;;;;;;4204663;34;20113;-67
2021/08/22 09:55:29;;;;;;;7.18;3.30;;;;;;;;;;4183255;34;20102;-72
2021/08/22 09:58:33;;;;;;;15.82;5.55;;;;;;;;;;4205042;34;20217;-65
2021/08/22 10:01:23;;;;;;;21.10;4.80;;;;;;;;;;4187972;34;20125;-70
2021/08/22 10:04:19;;;;;;;9.35;5.10;;;;;;;;;;4204837;34;20136;-69
2021/08/22 10:06:50;;;;;;;10.80;4.20;;;;;;;;;;4195578;34;20125;-70
2021/08/22 10:09:18;;;;;;;18.05;4.95;;;;;;;;;;4194190;34;20105;-71
2021/08/22 10:11:44;;;;;;;8.32;3.87;;;;;;;;;;4194220;34;20101;-67
2021/08/22 10:14:10;;;;;;;7.57;4.00;;;;;;;;;;4207188;34;20129;-72
2021/08/22 10:16:37;;;;;;;3.72;2.50;;;;;;;;;;4182398;34;20101;-67
2021/08/22 10:19:07;;;;;;;9.80;4.07;;;;;;;;;;4193414;34;20102;-72
2021/08/22 10:21:34;;;;;;;20.50;5.57;;;;;;;;;;4206605;34;20090;-71
2021/08/22 10:24:02;;;;;;;11.50;4.78;;;;;;;;;;4193939;34;20524;-67
2021/08/22 10:26:50;;;;;;;10.45;4.95;;;;;;;;;;4207019;34;20124;-68
2021/08/22 10:29:20;;;;;;;13.43;4.25;;;;;;;;;;4192815;34;20094;-71
2021/08/22 10:31:49;;;;;;;8.18;4.37;;;;;;;;;;4192866;34;20500;-72
2021/08/22 10:34:17;;;;;;;2.72;1.95;;;;;;;;;;4192945;34;20129;-67
2021/08/22 10:36:43;;;;;;;11.65;3.95;;;;;;;;;;4201570;34;20153;-70
2021/08/22 10:39:22;;;;;;;7.43;4.28;;;;;;;;;;4206576;34;20627;-68
2021/08/22 10:42:27;;;;;;;13.45;5.10;;;;;;;;;;4205844;34;20137;-66
2021/08/22 10:45:04;;;;;;;11.18;4.90;;;;;;;;;;4192903;34;20185;-65
2021/08/22 10:47:39;;;;;;;7.93;4.03;;;;;;;;;;4181953;34;20133;-66
2021/08/22 10:50:05;;;;;;;8.75;4.07;;;;;;;;;;4202890;34;20134;-66
2021/08/22 10:52:33;;;;;;;7.90;4.40;;;;;;;;;;4198715;34;20125;-66
2021/08/22 10:55:12;;;;;;;6.32;3.62;;;;;;;;;;4182611;34;20119;-71
2021/08/22 10:57:44;;;;;;;8.18;5.15;;;;;;;;;;4206697;34;20555;-68
2021/08/22 11:00:24;;;;;;;4.43;3.00;;;;;;;;;;4204851;34;20116;-68
2021/08/22 11:02:50;;;;;;;8.75;4.45;;;;;;;;;;4203683;34;20086;-68
2021/08/22 11:05:17;;;;;;;8.43;4.12;;;;;;;;;;4206356;34;20192;-68
2021/08/22 11:07:44;;;;;;;9.13;4.90;;;;;;;;;;4193561;34;20117;-65
2021/08/22 11:10:16;;;;;;;9.38;3.90;;;;;;;;;;4206200;34;20172;-68
2021/08/22 11:12:42;;;;;;;9.07;3.53;;;;;;;;;;4206049;34;20213;-65
2021/08/22 11:15:09;;;;;;;7.07;3.25;;;;;;;;;;4206248;34;20118;-68
2021/08/22 11:17:35;;;;;;;6.78;3.28;;;;;;;;;;4205153;34;20529;-67
2021/08/22 11:20:08;;;;;;;7.65;4.10;;;;;;;;;;4181945;34;20122;-72
2021/08/22 11:22:34;;;;;;;12.10;3.28;;;;;;;;;;4205976;34;20525;-66
2021/08/22 11:25:00;;;;;;;14.35;4.97;;;;;;;;;;4206203;34;20140;-67
2021/08/22 11:27:29;;;;;;;10.27;5.03;;;;;;;;;;4193129;34;20226;-67
2021/08/22 11:30:00;;;;;;;7.25;3.50;;;;;;;;;;4193157;34;20449;-68
2021/08/22 11:32:26;;;;;;;6.00;3.28;;;;;;;;;;4206017;34;20516;-72
2021/08/22 11:34:52;;;;;;;8.23;3.20;;;;;;;;;;4206191;34;20204;-69
2021/08/22 11:37:19;;;;;;;10.35;3.97;;;;;;;;;;4205906;34;20232;-67
2021/08/22 11:39:46;;;;;;;7.87;3.62;;;;;;;;;;4206359;34;20094;-65
2021/08/22 11:42:12;;;;;;;2.37;1.80;;;;;;;;;;4205962;34;20144;-66
2021/08/22 11:44:38;;;;;;;9.25;2.97;;;;;;;;;;4182004;34;20533;-66
2021/08/22 11:47:04;;;;;;;5.95;3.22;;;;;;;;;;4205987;34;20275;-66
2021/08/22 11:49:30;;;;;;;4.05;2.67;;;;;;;;;;4181554;34;20120;-67
2021/08/22 11:51:56;;;;;;;13.60;3.53;;;;;;;;;;4193275;34;20127;-69
2021/08/22 11:54:22;;;;;;;4.15;2.55;;;;;;;;;;4181608;34;20140;-67
2021/08/22 11:56:48;;;;;;;2.75;2.17;;;;;;;;;;4181695;34;20512;-66
2021/08/22 11:59:27;;;;;;;6.57;2.67;;;;;;;;;;4192940;34;20121;-67
2021/08/22 12:02:17;;;;;;;7.57;2.65;;;;;;;;;;4192566;34;20512;-66
2021/08/22 12:04:43;;;;;;;3.15;1.80;;;;;;;;;;4192911;34;20184;-66
2021/08/22 12:07:09;;;;;;;4.53;2.33;;;;;;;;;;4192936;34;20100;-67
2021/08/22 12:09:35;;;;;;;3.60;2.42;;;;;;;;;;4193243;34;20569;-70
2021/08/22 12:12:01;;;;;;;6.75;2.80;;;;;;;;;;4181675;34;20117;-69
2021/08/22 12:14:31;;;;;;;15.45;2.92;;;;;;;;;;4193214;34;20621;-70
2021/08/22 12:16:58;;;;;;;4.93;2.05;;;;;;;;;;4199829;34;20145;-69
2021/08/22 12:19:28;;;;;;;4.28;1.80;;;;;;;;;;4205120;34;20086;-71
2021/08/22 12:21:55;;;;;;;6.05;3.53;;;;;;;;;;4205867;34;20097;-67
2021/08/22 12:24:31;;;;;;;6.30;2.72;;;;;;;;;;4192871;34;20105;-72
2021/08/22 12:27:01;;;;;;;2.42;1.90;;;;;;;;;;4193232;34;20100;-72
2021/08/22 12:29:30;;;;;;;3.15;2.15;;;;;;;;;;4192764;34;20101;-71
2021/08/22 12:32:08;;;;;;;3.95;2.15;;;;;;;;;;4205718;34;20140;-71
2021/08/22 12:34:34;;;;;;;6.72;2.65;;;;;;;;;;4204512;34;20544;-71
2021/08/22 12:37:10;;;;;;;2.58;2.30;;;;;;;;;;4192133;34;20125;-70
2021/08/22 12:39:36;;;;;;;9.98;3.05;;;;;;;;;;4191905;34;20121;-72
2021/08/22 12:42:02;;;;;;;3.47;2.35;;;;;;;;;;4167449;34;20530;-71
2021/08/22 12:44:28;;;;;;;11.68;2.35;;;;;;;;;;4192010;34;20133;-73
2021/08/22 12:47:02;;;;;;;6.95;2.50;;;;;;;;;;4179308;34;20129;-70
2021/08/22 12:49:29;;;;;;;3.85;1.85;;;;;;;;;;4191779;34;20102;-66
2021/08/22 12:51:58;;;;;;;3.55;2.33;;;;;;;;;;4191493;34;20462;-69
2021/08/22 12:54:25;;;;;;;3.55;1.73;;;;;;;;;;4191638;34;20094;-69
2021/08/22 12:56:52;;;;;;;3.47;2.40;;;;;;;;;;4191451;34;20133;-74
2021/08/22 12:59:18;;;;;;;7.12;2.72;;;;;;;;;;4191910;34;20106;-73
2021/08/22 13:01:45;;;;;;;3.53;2.10;;;;;;;;;;4172931;34;20508;-70
2021/08/22 13:04:15;;;;;;;6.78;2.42;;;;;;;;;;4187366;34;20119;-70
2021/08/22 13:06:41;;;;;;;5.18;2.90;;;;;;;;;;4195183;34;20112;-72
2021/08/22 13:09:07;;;;;;;5.03;1.98;;;;;;;;;;4191777;34;20103;-67
2021/08/22 13:11:33;;;;;;;14.80;2.90;;;;;;;;;;4191453;34;20454;-69
2021/08/22 13:14:00;;;;;;;1.70;1.60;;;;;;;;;;4191556;34;20163;-69
2021/08/22 13:16:27;;;;;;;2.83;1.85;;;;;;;;;;4191256;34;20121;-70
2021/08/22 13:18:53;;;;;;;8.40;2.62;;;;;;;;;;4191370;34;20122;-70
2021/08/22 13:21:20;;;;;;;2.95;2.08;;;;;;;;;;4191509;34;20201;-69
2021/08/22 13:23:46;;;;;;;5.40;2.53;;;;;;;;;;4191461;34;20509;-70
2021/08/22 13:26:12;;;;;;;3.72;2.40;;;;;;;;;;4178616;34;20598;-69
2021/08/22 13:28:38;;;;;;;4.90;2.10;;;;;;;;;;4167154;34;20113;-71
2021/08/22 13:31:04;;;;;;;4.35;2.30;;;;;;;;;;4194642;34;20129;-70
2021/08/22 13:33:30;;;;;;;7.50;2.20;;;;;;;;;;4191107;34;20189;-68
2021/08/22 13:35:56;;;;;;;3.10;2.28;;;;;;;;;;4192046;34;20098;-70
2021/08/22 13:38:23;;;;;;;4.03;2.28;;;;;;;;;;4191899;34;20514;-68
2021/08/22 13:40:49;;;;;;;4.50;2.67;;;;;;;;;;4190508;34;20094;-68
2021/08/22 13:43:15;;;;;;;8.30;2.50;;;;;;;;;;4191188;34;20114;-69
2021/08/22 13:45:41;;;;;;;3.58;2.53;;;;;;;;;;4191399;34;20542;-72
2021/08/22 13:48:08;;;;;;;5.07;2.78;;;;;;;;;;4178214;34;20133;-69
2021/08/22 13:50:34;;;;;;;11.05;2.85;;;;;;;;;;4190988;34;20644;-72
2021/08/22 13:53:01;;;;;;;5.47;2.95;;;;;;;;;;4191368;34;20121;-70
2021/08/22 13:55:27;;;;;;;4.28;2.95;;;;;;;;;;4191027;34;20559;-70
2021/08/22 13:57:53;;;;;;;2.90;2.00;;;;;;;;;;4178105;34;20142;-70
2021/08/22 14:00:19;;;;;;;5.15;2.40;;;;;;;;;;4166920;34;20225;-68
2021/08/22 14:02:45;;;;;;;3.67;2.65;;;;;;;;;;4202468;34;20198;-71
2021/08/22 14:05:11;;;;;;;4.65;2.97;;;;;;;;;;4191868;34;20126;-66
2021/08/22 14:07:38;;;;;;;3.97;3.10;;;;;;;;;;4204767;34;20126;-70
2021/08/22 14:10:04;;;;;;;3.75;1.80;;;;;;;;;;4192054;34;20137;-74
2021/08/22 14:12:30;;;;;;;3.03;2.17;;;;;;;;;;4191944;34;20101;-70
2021/08/22 14:14:56;;;;;;;4.72;2.83;;;;;;;;;;4180100;34;20121;-69
2021/08/22 14:17:25;;;;;;;3.90;2.60;;;;;;;;;;4204581;34;20489;-68
2021/08/22 14:19:52;;;;;;;2.92;2.40;;;;;;;;;;4192075;34;20634;-67
2021/08/22 14:22:18;;;;;;;6.62;4.45;;;;;;;;;;4204407;34;20109;-66
2021/08/22 14:24:44;;;;;;;2.97;2.17;;;;;;;;;;4191971;34;20526;-64
2021/08/22 14:27:10;;;;;;;4.40;3.05;;;;;;;;;;4204253;34;20687;-65
2021/08/22 14:29:36;;;;;;;4.93;2.97;;;;;;;;;;4204574;34;20126;-66
2021/08/22 14:32:03;;;;;;;3.92;2.08;;;;;;;;;;4204517;34;20180;-63
2021/08/22 14:34:29;;;;;;;8.43;3.00;;;;;;;;;;4191586;34;20114;-68
2021/08/22 14:36:55;;;;;;;3.95;2.70;;;;;;;;;;4204199;34;20130;-68
2021/08/22 14:39:21;;;;;;;8.70;3.10;;;;;;;;;;4204262;34;20137;-65
2021/08/22 14:41:47;;;;;;;8.75;3.28;;;;;;;;;;4204435;34;20145;-70
2021/08/22 14:44:13;;;;;;;2.17;1.98;;;;;;;;;;4191720;34;20610;-68
2021/08/22 14:46:39;;;;;;;7.87;2.42;;;;;;;;;;4204065;34;20216;-72
2021/08/22 14:49:05;;;;;;;8.70;2.87;;;;;;;;;;4204188;34;20133;-68
2021/08/22 14:51:31;;;;;;;3.97;2.65;;;;;;;;;;4204354;34;20133;-68
2021/08/22 14:53:58;;;;;;;5.45;2.80;;;;;;;;;;4206641;34;20223;-68
2021/08/22 14:56:27;;;;;;;6.53;2.95;;;;;;;;;;4193476;34;20290;-67
2021/08/22 14:58:56;;;;;;;3.55;3.05;;;;;;;;;;4206393;34;20180;-69
2021/08/22 15:01:24;;;;;;;6.55;2.83;;;;;;;;;;4193578;34;20120;-70
2021/08/22 15:03:50;;;;;;;7.18;3.85;;;;;;;;;;4193605;34;20189;-69